Toowoomba, Australia
Current Conditions -  °F | °C
As of 6:00 AM on Tuesday 23 Dec 2014 (Local Time) from YBOK Reporting Station
Clear Clear  
Wind Chill: 63°   Ceiling: Unl
Heat Index: 63°   Visibility: 6mi
Dew Point: 59°   Wind: 1mph
Humidity: 88%   Direction: 340°NNW
Pressure: 30.03"   Gusts: NA
Location:  27.56°S, 151.96°E
Report Text: YBOK 222000Z AUTO 34001KT 9999 // NCD 17/15 Q1017
Loading
Personal Weather Stations






























Interactive Weather Map New forecast layout! Learn more

10-Day Weather Forecast

Advertisements
Track Severe Weather on mobile